Du Bois, Pennsylvania
Current Conditions -  °F | °C
As of 3:53 AM on Friday 31 Oct 2014 (Local Time) from KDUJ Reporting Station
Overcast Overcast  
Wind Chill: 41°   Ceiling: 4400
Heat Index: 41°   Visibility: 10mi
Dew Point: 36°   Wind: 3mph
Humidity: 82%   Direction: 110°ESE
Pressure: 29.96"   Gusts: NA
Location:  41.12°N, 78.76°W
Report Text: KDUJ 310753Z AUTO 11003KT 10SM OVC044 05/02 A2996 RMK AO2 SLP153 T00500022
Loading
Personal Weather Stations






























Interactive Weather Map
Tropical Storm Tracking
New forecast layout! Learn more

10-Day Weather Forecast

Advertisements
Track Severe Weather on mobile